Time;durP1;ratioP1;P1;durP2;ratioP2;P2;SDS_P1;SDS_P2;PMS_P1;PMS_P2;Temp;Humidity;BMP_temperature;BMP_pressure;BME280_temperature;BME280_humidity;BME280_pressure;Samples;Min_cycle;Max_cycle;Signal;HPM_P1;HPM_P2
2023/09/30 00:00:36;;;;;;;17.05;3.58;;;;;;;13.41;100.00;102320.81;5041453;28;20037;-75
2023/09/30 00:03:02;;;;;;;10.27;3.38;;;;;;;13.38;100.00;102311.09;5028777;28;20033;-77
2023/09/30 00:05:27;;;;;;;10.48;3.10;;;;;;;13.39;100.00;102318.38;5036974;28;20494;-77
2023/09/30 00:07:52;;;;;;;10.07;3.25;;;;;;;13.26;100.00;102325.22;5022604;28;20549;-77
2023/09/30 00:10:18;;;;;;;11.27;2.60;;;;;;;13.37;100.00;102314.28;5030419;28;20048;-76
2023/09/30 00:12:43;;;;;;;11.52;2.65;;;;;;;13.19;100.00;102308.97;5009641;28;20083;-77
2023/09/30 00:15:09;;;;;;;10.07;3.05;;;;;;;13.07;100.00;102314.69;5017707;28;20018;-77
2023/09/30 00:17:34;;;;;;;10.95;2.75;;;;;;;13.23;100.00;102312.69;5022354;28;20035;-76
2023/09/30 00:20:00;;;;;;;12.32;3.42;;;;;;;13.14;100.00;102311.25;5018355;28;20040;-77
2023/09/30 00:22:25;;;;;;;8.82;2.78;;;;;;;13.26;100.00;102308.34;5026803;28;20091;-76
2023/09/30 00:24:50;;;;;;;12.02;3.65;;;;;;;13.21;100.00;102312.22;5021291;28;20113;-76
2023/09/30 00:27:16;;;;;;;14.55;3.22;;;;;;;13.32;100.00;102312.53;5022413;28;20046;-76
2023/09/30 00:29:42;;;;;;;12.98;3.28;;;;;;;13.32;100.00;102317.34;5016674;28;20119;-77
2023/09/30 00:32:07;;;;;;;7.97;2.80;;;;;;;13.35;100.00;102316.66;5011618;28;20394;-77
2023/09/30 00:34:34;;;;;;;8.07;3.25;;;;;;;13.39;100.00;102324.00;5024596;28;20030;-76
2023/09/30 00:36:59;;;;;;;8.05;3.70;;;;;;;13.32;100.00;102317.34;5023449;28;20881;-76
2023/09/30 00:39:29;;;;;;;7.97;3.55;;;;;;;13.27;100.00;102321.22;5025085;28;20049;-73
2023/09/30 00:41:55;;;;;;;9.50;3.60;;;;;;;13.23;100.00;102321.13;5021138;28;20030;-73
2023/09/30 00:44:20;;;;;;;10.35;2.95;;;;;;;13.30;100.00;102328.16;5017368;28;20060;-74
2023/09/30 00:46:46;;;;;;;9.43;2.63;;;;;;;13.33;100.00;102325.44;5022699;28;20041;-74
2023/09/30 00:49:14;;;;;;;9.30;3.13;;;;;;;13.33;100.00;102328.25;5022277;28;20068;-74
2023/09/30 00:51:40;;;;;;;7.53;3.20;;;;;;;13.33;100.00;102330.25;5020123;28;20032;-74
2023/09/30 00:54:06;;;;;;;10.98;2.80;;;;;;;13.36;100.00;102329.50;5024619;28;20052;-70
2023/09/30 00:56:32;;;;;;;13.13;2.95;;;;;;;13.36;100.00;102321.88;5022360;28;20431;-73
2023/09/30 00:58:58;;;;;;;8.93;3.78;;;;;;;13.40;100.00;102336.06;5032491;28;20021;-73
2023/09/30 01:01:24;;;;;;;13.63;3.35;;;;;;;13.34;100.00;102324.25;5025995;28;20025;-71
2023/09/30 01:03:50;;;;;;;8.90;3.08;;;;;;;13.36;100.00;102340.75;5013877;28;20076;-71
2023/09/30 01:06:15;;;;;;;11.75;2.65;;;;;;;13.37;100.00;102342.41;5025225;28;20033;-72
2023/09/30 01:08:41;;;;;;;8.77;3.30;;;;;;;13.37;100.00;102348.03;5031676;28;20056;-76
2023/09/30 01:11:07;;;;;;;8.23;2.72;;;;;;;13.35;100.00;102350.41;5030923;28;20543;-76
2023/09/30 01:13:34;;;;;;;8.13;2.95;;;;;;;13.32;100.00;102363.16;5020748;28;20037;-76
2023/09/30 01:16:06;;;;;;;6.45;2.55;;;;;;;13.32;100.00;102356.72;5020968;28;20033;-76
2023/09/30 01:18:32;;;;;;;10.07;2.63;;;;;;;13.27;100.00;102368.22;5023568;28;20396;-76
2023/09/30 01:21:03;;;;;;;7.93;3.13;;;;;;;13.25;100.00;102364.94;5023742;28;20033;-76
2023/09/30 01:23:29;;;;;;;8.65;2.63;;;;;;;13.30;100.00;102370.31;5027286;28;20063;-76
2023/09/30 01:25:54;;;;;;;8.65;3.33;;;;;;;13.31;100.00;102361.53;5017632;28;20034;-76
2023/09/30 01:28:20;;;;;;;7.25;3.15;;;;;;;13.30;100.00;102359.06;5020825;28;20128;-76
2023/09/30 01:30:45;;;;;;;8.52;3.22;;;;;;;13.30;100.00;102353.44;5016906;28;20061;-76
2023/09/30 01:33:11;;;;;;;15.40;3.78;;;;;;;13.28;100.00;102356.63;5025358;28;20059;-76
2023/09/30 01:35:36;;;;;;;8.43;2.80;;;;;;;13.25;100.00;102362.94;5023499;28;20025;-76
2023/09/30 01:38:02;;;;;;;7.15;3.25;;;;;;;13.22;100.00;102358.06;5021678;28;20034;-76
2023/09/30 01:40:27;;;;;;;9.35;2.85;;;;;;;13.13;100.00;102361.00;5030659;28;20064;-76
2023/09/30 01:42:52;;;;;;;8.43;3.05;;;;;;;13.10;100.00;102361.75;5017913;28;20112;-76
2023/09/30 01:45:18;;;;;;;8.30;2.78;;;;;;;13.17;100.00;102353.50;5021695;28;20117;-76
2023/09/30 01:47:43;;;;;;;10.98;3.30;;;;;;;13.19;100.00;102358.75;5024549;28;20037;-76
2023/09/30 01:50:09;;;;;;;9.07;3.08;;;;;;;13.14;100.00;102353.41;5021380;28;20037;-73
2023/09/30 01:52:34;;;;;;;11.40;3.60;;;;;;;13.16;100.00;102357.50;5026504;28;20021;-71
2023/09/30 01:55:00;;;;;;;10.50;4.05;;;;;;;13.15;100.00;102358.66;5020111;28;20108;-71
2023/09/30 01:57:25;;;;;;;7.90;2.67;;;;;;;13.14;100.00;102350.59;5019571;28;20026;-71
2023/09/30 01:59:51;;;;;;;7.82;2.70;;;;;;;13.14;100.00;102357.03;5029278;28;20067;-71
2023/09/30 02:02:17;;;;;;;7.28;2.80;;;;;;;13.10;100.00;102356.13;5016905;28;20029;-71
2023/09/30 02:04:43;;;;;;;8.15;3.08;;;;;;;13.03;100.00;102361.56;5031201;28;20038;-71
2023/09/30 02:07:09;;;;;;;9.93;3.63;;;;;;;12.98;100.00;102356.16;5014976;28;20025;-73
2023/09/30 02:09:34;;;;;;;8.98;3.55;;;;;;;13.04;100.00;102351.13;5025473;28;20547;-72
2023/09/30 02:12:00;;;;;;;14.00;4.07;;;;;;;13.03;100.00;102350.31;5023863;28;20022;-72
2023/09/30 02:14:25;;;;;;;9.82;3.58;;;;;;;13.09;100.00;102348.88;5029786;28;20039;-72
2023/09/30 02:16:50;;;;;;;7.35;2.97;;;;;;;13.02;100.00;102341.03;5026560;28;20029;-72
2023/09/30 02:19:16;;;;;;;8.35;3.47;;;;;;;13.07;100.00;102334.34;5029707;28;20477;-71
2023/09/30 02:21:42;;;;;;;11.48;3.88;;;;;;;13.11;100.00;102340.91;5023439;28;20029;-73
2023/09/30 02:24:07;;;;;;;12.23;4.28;;;;;;;13.10;100.00;102342.06;5030465;28;20037;-74
2023/09/30 02:26:33;;;;;;;8.05;3.30;;;;;;;13.05;100.00;102341.50;5028659;28;20051;-75
2023/09/30 02:28:58;;;;;;;6.35;3.38;;;;;;;13.01;100.00;102344.22;5031067;28;20029;-73
2023/09/30 02:31:24;;;;;;;8.23;3.50;;;;;;;13.03;100.00;102344.69;5024258;28;20830;-75
2023/09/30 02:33:49;;;;;;;7.35;3.85;;;;;;;13.01;100.00;102341.41;5028024;28;20036;-72
2023/09/30 02:36:15;;;;;;;8.77;3.47;;;;;;;13.02;100.00;102354.28;5025121;28;20091;-71
2023/09/30 02:38:41;;;;;;;10.38;3.70;;;;;;;13.10;100.00;102356.13;5019086;28;20120;-71
2023/09/30 02:41:07;;;;;;;7.43;3.95;;;;;;;12.95;100.00;102360.53;5026331;28;20060;-71
2023/09/30 02:43:32;;;;;;;8.52;3.90;;;;;;;13.00;100.00;102356.63;5018994;28;20060;-71
2023/09/30 02:45:58;;;;;;;11.55;3.60;;;;;;;13.00;100.00;102345.38;5020484;28;20037;-72
2023/09/30 02:48:23;;;;;;;13.55;4.60;;;;;;;12.97;100.00;102340.50;5027490;28;20508;-72
2023/09/30 02:50:49;;;;;;;9.35;4.15;;;;;;;13.00;100.00;102342.56;5035226;28;20046;-73
2023/09/30 02:53:14;;;;;;;9.68;3.92;;;;;;;13.04;100.00;102346.31;5024683;28;20037;-75
2023/09/30 02:55:41;;;;;;;16.48;4.53;;;;;;;13.07;100.00;102347.56;5026729;28;20024;-72
2023/09/30 02:58:08;;;;;;;14.70;4.13;;;;;;;12.89;100.00;102339.47;5027500;28;20727;-71
2023/09/30 03:00:33;;;;;;;10.50;4.70;;;;;;;12.97;100.00;102346.13;5028032;28;20025;-72
2023/09/30 03:03:04;;;;;;;9.82;4.72;;;;;;;12.96;100.00;102341.66;5017167;28;20041;-72
2023/09/30 03:05:32;;;;;;;9.70;4.65;;;;;;;13.00;100.00;102339.75;5033207;28;20511;-75
2023/09/30 03:07:57;;;;;;;10.52;4.70;;;;;;;13.05;100.00;102331.09;5024328;28;20049;-74
2023/09/30 03:10:26;;;;;;;11.35;4.78;;;;;;;12.94;100.00;102333.56;5018054;28;20441;-73
2023/09/30 03:12:55;;;;;;;11.32;5.00;;;;;;;12.93;100.00;102329.16;5021941;28;20053;-72
2023/09/30 03:15:20;;;;;;;10.77;4.65;;;;;;;12.97;100.00;102329.25;5027842;28;20477;-72
2023/09/30 03:17:46;;;;;;;11.73;5.50;;;;;;;12.90;100.00;102323.41;5021659;28;20036;-73
2023/09/30 03:20:12;;;;;;;13.10;5.38;;;;;;;12.91;100.00;102333.50;5016563;28;20241;-73
2023/09/30 03:22:44;;;;;;;10.60;5.35;;;;;;;13.02;100.00;102331.78;5021339;28;20026;-73
2023/09/30 03:25:11;;;;;;;16.35;5.72;;;;;;;13.00;100.00;102334.97;5016801;28;20044;-73
2023/09/30 03:27:38;;;;;;;13.50;5.93;;;;;;;12.98;100.00;102333.69;5015964;28;20044;-73
2023/09/30 03:30:05;;;;;;;10.50;4.47;;;;;;;12.99;100.00;102333.34;5029396;28;20037;-72
2023/09/30 03:32:33;;;;;;;14.57;4.88;;;;;;;12.97;100.00;102330.06;5018769;28;20026;-73
2023/09/30 03:35:00;;;;;;;13.57;4.80;;;;;;;12.99;100.00;102332.53;5027731;28;20037;-72
2023/09/30 03:37:26;;;;;;;9.63;4.93;;;;;;;12.90;100.00;102346.75;5022618;28;20401;-72
2023/09/30 03:39:54;;;;;;;9.35;5.43;;;;;;;12.93;100.00;102345.19;5026880;28;20018;-72
2023/09/30 03:42:19;;;;;;;7.90;5.28;;;;;;;12.96;100.00;102350.91;5024635;28;20025;-72
2023/09/30 03:44:45;;;;;;;12.68;4.90;;;;;;;12.96;100.00;102341.66;5022802;28;20036;-74
2023/09/30 03:47:11;;;;;;;11.98;5.00;;;;;;;12.89;100.00;102339.47;5021450;28;20036;-73
2023/09/30 03:49:38;;;;;;;10.32;4.72;;;;;;;12.94;100.00;102342.00;5029932;28;20397;-73
2023/09/30 03:52:04;;;;;;;11.95;5.22;;;;;;;12.96;100.00;102345.28;5022250;28;20035;-74
2023/09/30 03:54:29;;;;;;;13.05;5.20;;;;;;;12.93;100.00;102345.19;5022437;28;20095;-72
2023/09/30 03:56:55;;;;;;;14.77;5.53;;;;;;;12.92;100.00;102350.00;5026797;28;20029;-73
2023/09/30 03:59:20;;;;;;;13.68;5.25;;;;;;;12.85;100.00;102343.38;5019948;28;20103;-73
2023/09/30 04:01:47;;;;;;;11.15;5.72;;;;;;;12.82;100.00;102345.72;5015276;28;20040;-73
2023/09/30 04:04:12;;;;;;;11.13;5.60;;;;;;;12.84;100.00;102352.94;5025488;28;20113;-72
2023/09/30 04:06:38;;;;;;;11.05;4.18;;;;;;;12.88;100.00;102335.03;5034558;28;20037;-72
2023/09/30 04:09:10;;;;;;;14.85;4.95;;;;;;;12.98;100.00;102347.75;5024891;28;20576;-75
2023/09/30 04:11:36;;;;;;;15.73;5.17;;;;;;;12.98;100.00;102336.50;5028474;28;20033;-75
2023/09/30 04:14:04;;;;;;;14.07;5.57;;;;;;;13.01;100.00;102336.59;5019315;28;20125;-75
2023/09/30 04:16:30;;;;;;;15.32;5.97;;;;;;;12.92;100.00;102335.13;5023690;28;20033;-75
2023/09/30 04:18:55;;;;;;;8.85;5.20;;;;;;;12.97;100.00;102334.88;5016403;28;20028;-75
2023/09/30 04:21:20;;;;;;;13.52;5.63;;;;;;;12.95;100.00;102337.22;5023091;28;20034;-75
2023/09/30 04:23:46;;;;;;;13.20;6.30;;;;;;;13.04;100.00;102337.88;5019981;28;20032;-76
2023/09/30 04:26:12;;;;;;;10.43;5.38;;;;;;;13.05;100.00;102330.25;5034714;28;20083;-76
2023/09/30 04:28:37;;;;;;;11.25;5.13;;;;;;;13.07;100.00;102331.56;5010515;28;20030;-76
2023/09/30 04:31:04;;;;;;;12.95;6.18;;;;;;;13.07;100.00;102339.97;5034942;28;20044;-75
2023/09/30 04:33:30;;;;;;;18.20;5.60;;;;;;;13.07;100.00;102339.13;5024974;28;20064;-75
2023/09/30 04:35:55;;;;;;;13.68;5.70;;;;;;;13.02;100.00;102349.47;5022670;28;20034;-75
2023/09/30 04:38:20;;;;;;;11.40;6.05;;;;;;;13.06;100.00;102352.38;5025576;28;20034;-76
2023/09/30 04:40:48;;;;;;;9.48;4.75;;;;;;;13.08;100.00;102347.22;5026338;28;20481;-76
2023/09/30 04:43:14;;;;;;;11.38;5.32;;;;;;;13.09;100.00;102339.59;5026013;28;20033;-76
2023/09/30 04:45:40;;;;;;;16.08;7.30;;;;;;;13.10;100.00;102347.69;5022313;28;20036;-76
2023/09/30 04:48:06;;;;;;;11.48;6.38;;;;;;;13.08;100.00;102350.03;5023089;28;20033;-76
2023/09/30 04:50:31;;;;;;;9.48;5.00;;;;;;;13.07;100.00;102359.66;5029909;28;20025;-76
2023/09/30 04:53:00;;;;;;;14.95;6.72;;;;;;;13.07;100.00;102356.84;5013773;28;20039;-77
2023/09/30 04:55:26;;;;;;;12.52;5.65;;;;;;;13.04;100.00;102353.94;5024219;28;20037;-76
2023/09/30 04:57:52;;;;;;;15.73;6.82;;;;;;;13.04;100.00;102365.97;5026582;28;20033;-77
2023/09/30 05:00:21;;;;;;;17.45;6.93;;;;;;;13.01;100.00;102369.53;5026079;28;22057;-76
2023/09/30 05:02:47;;;;;;;14.05;5.90;;;;;;;12.95;100.00;102370.94;5025742;28;20585;-77
2023/09/30 05:05:14;;;;;;;10.52;5.00;;;;;;;12.98;100.00;102370.22;5028162;28;20124;-77
2023/09/30 05:07:41;;;;;;;11.98;5.35;;;;;;;12.94;100.00;102367.31;5028324;28;20033;-77
2023/09/30 05:10:10;;;;;;;17.98;6.70;;;;;;;12.90;100.00;102374.00;5017520;28;20026;-76
2023/09/30 05:12:36;;;;;;;13.20;5.60;;;;;;;12.91;100.00;102375.66;5026548;28;20040;-76
2023/09/30 05:15:01;;;;;;;13.25;5.97;;;;;;;12.93;100.00;102373.31;5025702;28;20033;-76
2023/09/30 05:17:28;;;;;;;11.98;6.00;;;;;;;12.92;100.00;102377.28;5028007;28;20030;-77
2023/09/30 05:19:54;;;;;;;13.52;5.95;;;;;;;12.86;100.00;102375.88;5015858;28;20044;-72
2023/09/30 05:22:23;;;;;;;13.13;6.40;;;;;;;12.86;100.00;102375.88;5021228;28;20033;-73
2023/09/30 05:24:49;;;;;;;12.55;6.47;;;;;;;12.85;100.00;102371.47;5023084;28;20115;-73
2023/09/30 05:27:14;;;;;;;13.45;7.10;;;;;;;12.82;100.00;102385.06;5022120;28;20478;-73
2023/09/30 05:29:39;;;;;;;12.68;5.40;;;;;;;12.81;100.00;102382.59;5021031;28;20049;-75
2023/09/30 05:32:06;;;;;;;12.10;6.18;;;;;;;12.77;100.00;102382.47;5018803;28;20029;-74
2023/09/30 05:34:32;;;;;;;11.40;6.95;;;;;;;12.77;100.00;102385.28;5020497;28;20547;-72
2023/09/30 05:36:58;;;;;;;12.65;7.65;;;;;;;12.74;100.00;102394.44;5017425;28;20021;-73
2023/09/30 05:39:25;;;;;;;16.23;6.65;;;;;;;12.72;100.00;102391.16;5021420;28;20041;-72
2023/09/30 05:41:50;;;;;;;14.05;6.28;;;;;;;12.72;100.00;102401.59;5019366;28;20025;-72
2023/09/30 05:44:16;;;;;;;13.10;6.20;;;;;;;12.67;100.00;102399.84;5026562;28;20040;-73
2023/09/30 05:46:43;;;;;;;13.27;6.18;;;;;;;12.62;100.00;102397.28;5025008;28;20040;-73
2023/09/30 05:49:13;;;;;;;15.82;7.15;;;;;;;12.64;100.00;102400.56;5030947;28;20032;-75
2023/09/30 05:51:42;;;;;;;13.30;6.60;;;;;;;12.63;100.00;102396.13;5030843;28;20065;-75
2023/09/30 05:54:09;;;;;;;14.20;6.35;;;;;;;12.64;100.00;102399.75;5023008;28;20139;-75
2023/09/30 05:56:37;;;;;;;16.77;8.38;;;;;;;12.62;100.00;102397.28;5024191;28;20033;-75
2023/09/30 05:59:03;;;;;;;19.80;7.97;;;;;;;12.61;100.00;102402.09;5023835;28;20072;-75
2023/09/30 06:01:28;;;;;;;23.35;8.73;;;;;;;12.58;100.00;102397.16;5027612;28;20445;-75
2023/09/30 06:03:54;;;;;;;13.50;7.70;;;;;;;12.60;100.00;102394.00;5026924;28;20732;-75
2023/09/30 06:06:20;;;;;;;13.05;7.20;;;;;;;12.60;100.00;102405.25;5025298;28;20033;-75
2023/09/30 06:08:45;;;;;;;15.05;7.97;;;;;;;12.57;100.00;102397.53;5027913;28;20029;-75
2023/09/30 06:11:19;;;;;;;19.25;9.07;;;;;;;12.57;100.00;102408.78;5022531;28;20037;-75
2023/09/30 06:13:46;;;;;;;15.77;8.73;;;;;;;12.60;100.00;102410.84;5019034;28;20116;-75
2023/09/30 06:16:11;;;;;;;20.60;7.75;;;;;;;12.64;100.00;102408.97;5018783;28;20041;-75
2023/09/30 06:18:36;;;;;;;17.60;8.07;;;;;;;12.52;100.00;102409.84;5021732;28;20398;-75
2023/09/30 06:21:03;;;;;;;14.15;7.82;;;;;;;12.63;100.00;102401.75;5023420;28;20021;-74
2023/09/30 06:23:29;;;;;;;18.13;7.65;;;;;;;12.61;100.00;102398.47;5027385;28;20040;-75
2023/09/30 06:25:55;;;;;;;16.67;7.97;;;;;;;12.61;100.00;102402.09;5019862;28;20064;-75
2023/09/30 06:28:25;;;;;;;19.25;8.98;;;;;;;12.51;100.00;102398.94;5029328;28;20114;-72
2023/09/30 06:30:51;;;;;;;22.67;8.35;;;;;;;12.56;100.00;102407.13;5023646;28;20396;-73
2023/09/30 06:33:17;;;;;;;17.10;8.45;;;;;;;12.66;100.00;102409.44;5022983;28;20037;-72
2023/09/30 06:35:50;;;;;;;21.23;8.90;;;;;;;12.69;100.00;102414.38;5017246;28;20025;-73
2023/09/30 06:38:18;;;;;;;21.20;9.63;;;;;;;12.66;100.00;102415.06;5019427;28;20396;-73
2023/09/30 06:40:45;;;;;;;23.52;10.82;;;;;;;12.71;100.00;102414.00;5016230;28;20029;-75
2023/09/30 06:43:10;;;;;;;16.25;9.65;;;;;;;12.59;100.00;102410.06;5016441;28;20372;-73
2023/09/30 06:45:41;;;;;;;21.10;9.77;;;;;;;12.64;100.00;102406.16;5021571;28;20033;-71
2023/09/30 06:48:06;;;;;;;20.70;10.38;;;;;;;12.72;100.00;102402.41;5017718;28;20447;-72
2023/09/30 06:50:32;;;;;;;20.67;9.35;;;;;;;12.76;100.00;102408.13;5017311;28;20396;-72
2023/09/30 06:52:57;;;;;;;21.30;10.52;;;;;;;12.82;100.00;102413.16;5013970;28;20397;-73
2023/09/30 06:55:22;;;;;;;23.70;11.43;;;;;;;12.79;100.00;102418.66;5013407;28;20117;-73
2023/09/30 06:57:48;;;;;;;22.33;9.90;;;;;;;12.86;100.00;102420.84;5022675;28;20025;-72
2023/09/30 07:00:14;;;;;;;24.58;11.27;;;;;;;12.91;100.00;102423.44;5016024;28;20061;-75
2023/09/30 07:02:40;;;;;;;23.17;10.90;;;;;;;12.90;100.00;102427.41;5019135;28;20025;-74
2023/09/30 07:05:13;;;;;;;23.65;9.38;;;;;;;12.99;100.00;102422.47;5016958;28;20394;-74
2023/09/30 07:07:39;;;;;;;25.33;10.75;;;;;;;13.09;100.00;102430.41;5014331;28;20021;-74
2023/09/30 07:10:06;;;;;;;22.73;10.20;;;;;;;13.05;100.00;102437.91;5020912;28;20076;-75
2023/09/30 07:12:32;;;;;;;25.00;11.18;;;;;;;13.06;100.00;102433.91;5012235;28;20117;-74
2023/09/30 07:14:58;;;;;;;17.83;9.32;;;;;;;13.12;100.00;102449.34;5017151;28;20041;-75
2023/09/30 07:17:24;;;;;;;24.70;9.45;;;;;;;13.21;100.00;102457.63;5017739;28;20053;-75
2023/09/30 07:19:50;;;;;;;19.10;9.25;;;;;;;13.25;100.00;102457.75;5018663;28;20104;-75
2023/09/30 07:22:15;;;;;;;22.42;8.98;;;;;;;13.31;100.00;102467.59;5018607;28;20033;-75
2023/09/30 07:24:40;;;;;;;20.50;10.35;;;;;;;13.28;100.00;102468.25;5018344;28;20033;-75
2023/09/30 07:27:06;;;;;;;19.92;9.65;;;;;;;13.30;100.00;102460.31;5021834;28;20048;-74
2023/09/30 07:29:32;;;;;;;26.58;10.32;;;;;;;13.34;100.00;102466.84;5018462;28;20090;-74
2023/09/30 07:31:57;;;;;;;13.30;6.22;;;;;;;13.95;100.00;102458.06;5018613;28;20111;-75
2023/09/30 07:34:22;;;;;;;27.05;10.38;;;;;;;13.55;100.00;102470.25;5003843;28;20034;-75
2023/09/30 07:36:48;;;;;;;17.27;10.25;;;;;;;13.54;100.00;102476.28;5020356;28;20524;-75
2023/09/30 07:39:13;;;;;;;21.10;9.90;;;;;;;13.51;100.00;102489.03;5012054;28;20056;-72
2023/09/30 07:41:38;;;;;;;18.90;9.50;;;;;;;13.55;100.00;102478.69;5019364;28;20112;-72
2023/09/30 07:44:05;;;;;;;23.75;10.00;;;;;;;13.59;100.00;102484.44;5010200;28;20116;-72
2023/09/30 07:46:30;;;;;;;9.88;5.32;;;;;;;14.95;100.00;102484.22;5013238;28;20041;-74
2023/09/30 07:48:56;;;;;;;23.10;9.18;;;;;;;14.43;100.00;102500.28;5012797;28;20033;-73
2023/09/30 07:51:21;;;;;;;25.05;9.80;;;;;;;13.95;100.00;102502.28;5018896;28;20497;-72
2023/09/30 07:53:46;;;;;;;24.58;9.82;;;;;;;13.86;100.00;102501.66;5017073;28;20442;-72
2023/09/30 07:56:13;;;;;;;21.60;9.38;;;;;;;13.86;100.00;102504.47;5018784;28;20075;-73
2023/09/30 07:58:38;;;;;;;19.83;10.45;;;;;;;14.10;100.00;102500.66;5019818;28;20109;-74
2023/09/30 08:01:04;;;;;;;22.20;9.93;;;;;;;14.86;100.00;102506.16;5013021;28;20029;-74
2023/09/30 08:03:29;;;;;;;35.75;10.27;;;;;;;15.36;100.00;102512.88;5017545;28;20033;-75
2023/09/30 08:05:55;;;;;;;37.10;11.15;;;;;;;14.88;100.00;102521.50;5017080;28;20474;-76
2023/09/30 08:08:21;;;;;;;26.48;9.07;;;;;;;14.94;100.00;102520.03;5014887;28;20056;-76
2023/09/30 08:10:47;;;;;;;20.52;10.05;;;;;;;15.42;100.00;102517.03;5018162;28;20092;-75
2023/09/30 08:13:13;;;;;;;20.13;7.70;;;;;;;16.04;100.00;102509.41;5022996;28;20026;-76
2023/09/30 08:15:38;;;;;;;23.83;9.48;;;;;;;15.53;100.00;102506.78;5015887;28;20030;-76
2023/09/30 08:18:05;;;;;;;22.80;9.73;;;;;;;15.74;100.00;102516.91;5023821;28;20067;-75
2023/09/30 08:20:31;;;;;;;33.28;11.05;;;;;;;16.08;100.00;102511.47;5019999;28;20117;-75
2023/09/30 08:22:56;;;;;;;28.67;8.40;;;;;;;15.60;100.00;102514.56;5021877;28;20104;-75
2023/09/30 08:25:22;;;;;;;38.40;10.13;;;;;;;16.14;100.00;102513.59;5023338;28;20037;-75
2023/09/30 08:27:49;;;;;;;38.03;10.77;;;;;;;16.46;100.00;102508.50;5024764;28;20485;-76
2023/09/30 08:30:15;;;;;;;35.55;9.75;;;;;;;16.34;100.00;102522.81;5017137;28;20480;-76
2023/09/30 08:32:41;;;;;;;33.17;10.45;;;;;;;16.27;100.00;102525.50;5020177;28;20064;-75
2023/09/30 08:35:07;;;;;;;20.75;7.88;;;;;;;16.74;100.00;102520.59;5023026;28;20560;-75
2023/09/30 08:37:32;;;;;;;25.88;8.77;;;;;;;17.06;100.00;102524.75;5022592;28;20410;-74
2023/09/30 08:39:58;;;;;;;22.88;8.80;;;;;;;16.80;100.00;102510.59;5019470;28;20028;-74
2023/09/30 08:42:29;;;;;;;15.00;7.38;;;;;;;16.56;100.00;102507.03;5023493;28;20040;-75
2023/09/30 08:44:55;;;;;;;17.77;7.57;;;;;;;16.74;100.00;102489.50;5017410;28;20044;-75
2023/09/30 08:47:22;;;;;;;13.48;7.03;;;;;;;16.02;100.00;102494.84;5019324;28;20029;-75
2023/09/30 08:49:50;;;;;;;23.33;7.85;;;;;;;16.86;100.00;102504.28;5019268;28;20126;-76
2023/09/30 08:52:16;;;;;;;26.73;8.77;;;;;;;16.87;100.00;102488.13;5018222;28;20111;-76
2023/09/30 08:54:42;;;;;;;17.23;7.13;;;;;;;17.19;100.00;102502.69;5019844;28;20525;-76
2023/09/30 08:57:10;;;;;;;21.50;7.63;;;;;;;16.77;100.00;102489.56;5019210;28;20036;-76
2023/09/30 08:59:36;;;;;;;22.88;7.15;;;;;;;16.83;100.00;102501.41;5019864;28;20107;-77
2023/09/30 09:02:01;;;;;;;15.02;6.28;;;;;;;16.72;100.00;102501.22;5024142;28;20188;-76
2023/09/30 09:04:27;;;;;;;21.33;8.05;;;;;;;16.88;100.00;102505.91;5022418;28;20026;-76
2023/09/30 09:06:56;;;;;;;14.88;6.30;;;;;;;17.05;100.00;102505.34;5033462;28;20056;-75
2023/09/30 09:09:22;;;;;;;12.85;5.47;;;;;;;17.40;100.00;102498.50;5025519;28;20496;-77
2023/09/30 09:11:48;;;;;;;13.20;6.20;;;;;;;16.98;100.00;102499.59;5021249;28;20029;-76
2023/09/30 09:14:14;;;;;;;16.05;6.78;;;;;;;16.79;100.00;102497.66;5021691;28;20040;-76
2023/09/30 09:16:53;;;;;;;21.05;8.10;;;;;;;16.66;100.00;102500.72;5018969;28;20497;-75
2023/09/30 09:19:20;;;;;;;11.85;5.00;;;;;;;16.99;100.00;102506.84;5027235;28;20029;-77
2023/09/30 09:22:04;;;;;;;11.52;4.53;;;;;;;17.04;100.00;102510.19;5019662;28;20033;-77
2023/09/30 09:24:42;;;;;;;14.48;5.45;;;;;;;16.92;100.00;102509.59;5015891;28;20033;-76
2023/09/30 09:27:09;;;;;;;15.02;5.10;;;;;;;16.99;100.00;102521.00;5024041;28;20065;-77
2023/09/30 09:29:39;;;;;;;26.17;5.30;;;;;;;17.59;100.00;102532.31;5020180;28;20152;-77
2023/09/30 09:32:11;;;;;;;12.85;5.30;;;;;;;17.16;100.00;102540.25;5019618;28;20446;-77
2023/09/30 09:34:38;;;;;;;13.57;5.22;;;;;;;16.30;100.00;102541.72;5027878;28;20431;-77
2023/09/30 09:37:20;;;;;;;11.85;4.20;;;;;;;15.91;100.00;102544.63;5023520;28;20057;-77
2023/09/30 09:40:04;;;;;;;13.77;4.18;;;;;;;15.79;100.00;102547.63;5021953;28;20052;-77
2023/09/30 09:42:32;;;;;;;14.05;4.35;;;;;;;16.13;100.00;102537.41;5018214;28;20041;-77
2023/09/30 09:44:59;;;;;;;10.93;4.55;;;;;;;16.13;100.00;102550.69;5025350;28;20112;-77
2023/09/30 09:47:25;;;;;;;9.73;4.30;;;;;;;16.49;100.00;102546.50;5024729;28;20037;-77
2023/09/30 09:49:55;;;;;;;11.55;4.35;;;;;;;16.52;100.00;102540.06;5021215;28;20425;-77
2023/09/30 09:52:21;;;;;;;10.25;4.30;;;;;;;16.57;100.00;102541.75;5015641;28;20072;-76
2023/09/30 09:54:47;;;;;;;13.93;4.07;;;;;;;16.85;100.00;102532.94;5016810;28;20053;-75
2023/09/30 09:57:12;;;;;;;10.50;4.60;;;;;;;17.46;100.00;102539.44;5025725;28;20033;-75
2023/09/30 09:59:43;;;;;;;11.15;4.70;;;;;;;16.75;100.00;102537.19;5019819;28;20035;-74
2023/09/30 10:02:14;;;;;;;12.70;3.47;;;;;;;16.15;100.00;102537.00;5017610;28;20038;-75
2023/09/30 10:04:41;;;;;;;9.60;3.40;;;;;;;16.89;100.00;102538.63;5012780;28;20037;-75
2023/09/30 10:07:14;;;;;;;10.52;3.60;;;;;;;16.43;100.00;102537.50;5022037;28;20026;-75
2023/09/30 10:09:45;;;;;;;15.55;5.07;;;;;;;16.16;100.00;102533.00;5017361;28;20038;-75
2023/09/30 10:12:11;;;;;;;10.95;6.18;;;;;;;16.38;100.00;102551.97;5024846;28;20037;-75
2023/09/30 10:14:37;;;;;;;15.05;5.10;;;;;;;16.31;100.00;102557.47;5020867;28;20419;-75
2023/09/30 10:17:03;;;;;;;10.77;4.43;;;;;;;16.35;100.00;102551.91;5019797;28;20045;-75
2023/09/30 10:19:30;;;;;;;11.82;4.18;;;;;;;16.39;100.00;102559.22;5014637;28;20084;-76
2023/09/30 10:22:21;;;;;;;11.45;4.78;;;;;;;16.23;100.00;102567.00;5017321;28;20041;-75
2023/09/30 10:24:49;;;;;;;9.80;4.88;;;;;;;16.67;100.00;102558.06;5023281;28;20523;-75
2023/09/30 10:27:37;;;;;;;11.50;3.80;;;;;;;16.92;100.00;102569.00;5026405;28;20071;-75
2023/09/30 10:30:10;;;;;;;7.95;3.53;;;;;;;17.28;100.00;102568.28;5028820;28;20038;-76
2023/09/30 10:32:50;;;;;;;19.48;4.65;;;;;;;17.30;100.00;102561.44;5017920;28;20551;-78
2023/09/30 10:35:36;;;;;;;8.13;3.75;;;;;;;17.16;100.00;102557.25;5020630;28;20033;-78
2023/09/30 10:38:27;;;;;;;8.10;3.70;;;;;;;17.27;100.00;102552.53;5006601;28;20045;-77
2023/09/30 10:40:53;;;;;;;9.88;2.83;;;;;;;17.34;100.00;102551.00;5024112;28;20060;-77
2023/09/30 10:43:32;;;;;;;7.72;3.67;;;;;;;17.11;100.00;102554.72;5018635;28;20029;-77
2023/09/30 10:45:59;;;;;;;9.25;3.05;;;;;;;16.93;100.00;102554.47;5018090;28;20589;-78
2023/09/30 10:48:36;;;;;;;7.97;3.30;;;;;;;16.79;100.00;102557.88;5024526;28;20028;-74
2023/09/30 10:51:14;;;;;;;6.65;2.85;;;;;;;17.03;100.00;102553.00;5018061;28;20029;-78
2023/09/30 10:53:51;;;;;;;10.85;3.58;;;;;;;17.01;100.00;102552.56;5025655;28;20496;-77
2023/09/30 10:56:18;;;;;;;12.45;3.67;;;;;;;17.53;100.00;102547.19;5025229;28;20116;-78
2023/09/30 10:58:51;;;;;;;10.57;3.05;;;;;;;17.59;100.00;102551.31;5018165;28;20037;-79
2023/09/30 11:01:21;;;;;;;8.23;3.30;;;;;;;17.67;100.00;102547.38;5020464;28;20394;-79
2023/09/30 11:03:49;;;;;;;7.80;2.53;;;;;;;17.84;100.00;102540.31;5014900;28;20124;-79
2023/09/30 11:06:17;;;;;;;4.22;2.10;;;;;;;17.86;100.00;102538.72;5022386;28;20030;-78
2023/09/30 11:08:51;;;;;;;9.93;2.92;;;;;;;17.87;100.00;102539.50;5018998;28;20529;-76